• Join FlightAware (Why Join?)
  • Login
  • US Flag 
01:53PM EDT


 

Airport Tracker/Info


-or-


 

Live Flight TrackerFlight Track Log ✈ KLM1880 ✈ 23-Apr-2013 ✈ EDDN / NUE - EHAM / AMS

Flight Track Log - Related Links

Times and Time Zones

All times are in EDT time to prevent confusion due to time zone crossing. See the KLM1880 flight status page for this flight to view local times or setup timezone preferences in your user account.

Time Position Orientation Groundspeed Altitude Reporting Facility
EDT Latitude Longitude Course Direction KTS MPH feet Rate Location/Type
12:32AM 50.7052 8.5516 308° West  Level Estimated
12:33AM 50.7398 8.4753 306° West  Level Estimated
12:34AM 50.7744 8.3989 306° West  Level Estimated
12:35AM 50.8089 8.3225 306° West  Level Estimated
12:36AM 50.8434 8.2459 306° West  Level Estimated
12:37AM 50.8779 8.1692 305° West  Level Estimated
12:38AM 50.9123 8.0924 305° West  Level Estimated
12:39AM 50.9466 8.0154 305° West  Level Estimated
12:40AM 50.9809 7.9384 305° West  Level Estimated
12:41AM 51.0151 7.8612 305° West  Level Estimated
12:42AM 51.0493 7.7839 305° West  Level Estimated
12:43AM 51.0835 7.7066 305° West  Level Estimated
12:44AM 51.1175 7.6291 305° West  Level Estimated
12:45AM 51.1516 7.5514 305° West  Level Estimated
12:46AM 51.1856 7.4737 305° West  Level Estimated
12:47AM 51.2195 7.3959 305° West  Level Estimated
12:48AM 51.2534 7.3179 305° West  Level Estimated
12:49AM 51.2872 7.2398 305° West  Level Estimated
12:50AM 51.3210 7.1617 305° West  Level Estimated
12:51AM 51.3547 7.0834 305° West  Level Estimated
12:52AM 51.3884 7.0049 305° West  Level Estimated
12:53AM 51.4220 6.9264 304° West  Level Estimated
12:54AM 51.4556 6.8477 304° West  Level Estimated
12:55AM 51.4891 6.7690 304° West  Level Estimated
12:56AM 51.5225 6.6901 304° West  Level Estimated
12:57AM 51.5560 6.6111 304° West  Level Estimated
12:58AM 51.5893 6.5320 304° West  Level Estimated
12:59AM 51.6226 6.4528 304° West  Level Estimated
01:00AM 51.6559 6.3734 304° West  Level Estimated
01:01AM 51.6891 6.2939 304° West  Level Estimated
01:02AM 51.7222 6.2144 304° West  Level Estimated
01:03AM 51.7553 6.1347 304° West  Level Estimated
01:04AM 51.7883 6.0549 304° West  Level Estimated
01:05AM 51.8213 5.9749 304° West  Level Estimated
01:06AM 51.8542 5.8949 304° West  Level Estimated
01:07AM 51.8871 5.8147 304° West  Level Estimated
01:08AM 51.9199 5.7344 304° West  Level Estimated
01:09AM 51.9527 5.6540 303° West  Level Estimated
01:10AM 51.9854 5.5735 303° West  Level Estimated
01:11AM 52.0180 5.4929 303° West  Level Estimated
01:12AM 52.0506 5.4121 303° West  Level Estimated
01:13AM 52.0832 5.3313 303° West  Level Estimated
01:14AM 52.1212 5.2364 303° West  Level Estimated
01:15AM 52.1592 5.1413 303° West  Level Estimated
01:16AM 52.1971 5.0461 303° West  Level Estimated
01:17AM 52.2349 4.9507 303° West  Level Estimated
01:18AM 52.2727 4.8552 303° West  Level Estimated
01:19AM 52.3086 4.7639 303° West  Level Estimated
01:20AM 52.3086 4.7639 348° North  Level Estimated
01:21AM 52.3086 4.7639 348° North  Level Estimated